sensor_id;sensor_type;location;lat;lon;timestamp;P1;durP1;ratioP1;P2;durP2;ratioP2
77061;SDS011;65989;51.686;5.138;2023-06-10T00:02:23;10.87;;;7.27;;
77061;SDS011;65989;51.686;5.138;2023-06-10T00:04:49;11.47;;;7.23;;
77061;SDS011;65989;51.686;5.138;2023-06-10T00:07:14;10.32;;;7.57;;
77061;SDS011;65989;51.686;5.138;2023-06-10T00:09:40;10.10;;;7.13;;
77061;SDS011;65989;51.686;5.138;2023-06-10T00:12:06;10.07;;;7.17;;
77061;SDS011;65989;51.686;5.138;2023-06-10T00:14:32;11.45;;;7.43;;
77061;SDS011;65989;51.686;5.138;2023-06-10T00:16:57;9.83;;;6.73;;
77061;SDS011;65989;51.686;5.138;2023-06-10T00:19:22;13.07;;;7.33;;
77061;SDS011;65989;51.686;5.138;2023-06-10T00:21:50;10.75;;;7.65;;
77061;SDS011;65989;51.686;5.138;2023-06-10T00:24:17;10.13;;;7.38;;
77061;SDS011;65989;51.686;5.138;2023-06-10T00:26:42;11.93;;;7.23;;
77061;SDS011;65989;51.686;5.138;2023-06-10T00:29:08;11.60;;;7.23;;
77061;SDS011;65989;51.686;5.138;2023-06-10T00:31:34;9.87;;;7.03;;
77061;SDS011;65989;51.686;5.138;2023-06-10T00:33:59;10.13;;;7.50;;
77061;SDS011;65989;51.686;5.138;2023-06-10T00:36:24;9.90;;;7.43;;
77061;SDS011;65989;51.686;5.138;2023-06-10T00:38:49;10.70;;;7.22;;
77061;SDS011;65989;51.686;5.138;2023-06-10T00:41:15;10.50;;;7.50;;
77061;SDS011;65989;51.686;5.138;2023-06-10T00:43:40;10.87;;;7.60;;
77061;SDS011;65989;51.686;5.138;2023-06-10T00:46:05;12.07;;;7.90;;
77061;SDS011;65989;51.686;5.138;2023-06-10T00:48:31;10.33;;;7.70;;
77061;SDS011;65989;51.686;5.138;2023-06-10T00:50:57;14.27;;;7.80;;
77061;SDS011;65989;51.686;5.138;2023-06-10T00:53:23;10.37;;;7.60;;
77061;SDS011;65989;51.686;5.138;2023-06-10T00:55:48;11.95;;;7.75;;
77061;SDS011;65989;51.686;5.138;2023-06-10T00:58:14;13.77;;;7.07;;
77061;SDS011;65989;51.686;5.138;2023-06-10T01:00:40;10.55;;;7.25;;
77061;SDS011;65989;51.686;5.138;2023-06-10T01:03:06;11.47;;;7.33;;
77061;SDS011;65989;51.686;5.138;2023-06-10T01:05:33;11.25;;;7.82;;
77061;SDS011;65989;51.686;5.138;2023-06-10T01:10:32;10.95;;;7.43;;
77061;SDS011;65989;51.686;5.138;2023-06-10T01:12:59;11.40;;;7.78;;
77061;SDS011;65989;51.686;5.138;2023-06-10T01:15:27;13.00;;;7.97;;
77061;SDS011;65989;51.686;5.138;2023-06-10T01:17:56;11.60;;;7.60;;
77061;SDS011;65989;51.686;5.138;2023-06-10T01:20:23;13.52;;;8.10;;
77061;SDS011;65989;51.686;5.138;2023-06-10T01:22:49;10.57;;;8.37;;
77061;SDS011;65989;51.686;5.138;2023-06-10T01:25:15;10.50;;;7.90;;
77061;SDS011;65989;51.686;5.138;2023-06-10T01:27:41;12.50;;;8.80;;
77061;SDS011;65989;51.686;5.138;2023-06-10T01:30:08;12.10;;;9.18;;
77061;SDS011;65989;51.686;5.138;2023-06-10T01:32:46;14.35;;;9.80;;
77061;SDS011;65989;51.686;5.138;2023-06-10T01:35:13;14.35;;;9.38;;
77061;SDS011;65989;51.686;5.138;2023-06-10T01:37:38;16.93;;;9.80;;
77061;SDS011;65989;51.686;5.138;2023-06-10T01:40:04;13.25;;;9.40;;
77061;SDS011;65989;51.686;5.138;2023-06-10T01:42:31;14.40;;;10.13;;
77061;SDS011;65989;51.686;5.138;2023-06-10T01:44:56;15.23;;;9.53;;
77061;SDS011;65989;51.686;5.138;2023-06-10T01:47:22;12.98;;;9.65;;
77061;SDS011;65989;51.686;5.138;2023-06-10T01:49:47;13.63;;;9.73;;
77061;SDS011;65989;51.686;5.138;2023-06-10T01:52:13;15.23;;;10.47;;
77061;SDS011;65989;51.686;5.138;2023-06-10T01:54:38;15.97;;;10.20;;
77061;SDS011;65989;51.686;5.138;2023-06-10T01:57:03;14.07;;;10.50;;
77061;SDS011;65989;51.686;5.138;2023-06-10T01:59:31;11.57;;;9.93;;
77061;SDS011;65989;51.686;5.138;2023-06-10T02:01:56;14.17;;;9.50;;
77061;SDS011;65989;51.686;5.138;2023-06-10T02:04:21;15.20;;;9.60;;
77061;SDS011;65989;51.686;5.138;2023-06-10T02:06:47;14.07;;;9.63;;
77061;SDS011;65989;51.686;5.138;2023-06-10T02:09:13;13.38;;;9.45;;
77061;SDS011;65989;51.686;5.138;2023-06-10T02:11:38;15.50;;;9.90;;
77061;SDS011;65989;51.686;5.138;2023-06-10T02:14:04;11.48;;;8.98;;
77061;SDS011;65989;51.686;5.138;2023-06-10T02:16:29;12.53;;;9.33;;
77061;SDS011;65989;51.686;5.138;2023-06-10T02:18:55;13.35;;;9.18;;
77061;SDS011;65989;51.686;5.138;2023-06-10T02:21:21;13.03;;;9.83;;
77061;SDS011;65989;51.686;5.138;2023-06-10T02:23:46;13.70;;;9.53;;
77061;SDS011;65989;51.686;5.138;2023-06-10T02:26:12;15.90;;;9.27;;
77061;SDS011;65989;51.686;5.138;2023-06-10T02:28:37;14.20;;;9.10;;
77061;SDS011;65989;51.686;5.138;2023-06-10T02:31:02;13.67;;;9.83;;
77061;SDS011;65989;51.686;5.138;2023-06-10T02:33:27;14.83;;;10.33;;
77061;SDS011;65989;51.686;5.138;2023-06-10T02:35:53;13.53;;;9.30;;
77061;SDS011;65989;51.686;5.138;2023-06-10T02:38:18;15.93;;;9.20;;
77061;SDS011;65989;51.686;5.138;2023-06-10T02:40:44;14.93;;;9.70;;
77061;SDS011;65989;51.686;5.138;2023-06-10T02:43:09;13.93;;;9.53;;
77061;SDS011;65989;51.686;5.138;2023-06-10T02:45:35;14.43;;;9.57;;
77061;SDS011;65989;51.686;5.138;2023-06-10T02:48:00;14.97;;;9.50;;
77061;SDS011;65989;51.686;5.138;2023-06-10T02:50:25;12.20;;;9.57;;
77061;SDS011;65989;51.686;5.138;2023-06-10T02:52:50;15.13;;;9.93;;
77061;SDS011;65989;51.686;5.138;2023-06-10T02:55:16;13.03;;;9.13;;
77061;SDS011;65989;51.686;5.138;2023-06-10T02:57:41;11.17;;;9.20;;
77061;SDS011;65989;51.686;5.138;2023-06-10T03:00:06;13.03;;;9.30;;
77061;SDS011;65989;51.686;5.138;2023-06-10T03:02:35;11.18;;;9.43;;
77061;SDS011;65989;51.686;5.138;2023-06-10T03:05:02;13.30;;;9.97;;
77061;SDS011;65989;51.686;5.138;2023-06-10T03:07:27;15.45;;;10.50;;
77061;SDS011;65989;51.686;5.138;2023-06-10T03:09:52;17.87;;;9.83;;
77061;SDS011;65989;51.686;5.138;2023-06-10T03:12:18;13.63;;;9.90;;
77061;SDS011;65989;51.686;5.138;2023-06-10T03:14:43;11.57;;;9.50;;
77061;SDS011;65989;51.686;5.138;2023-06-10T03:17:08;12.77;;;9.20;;
77061;SDS011;65989;51.686;5.138;2023-06-10T03:19:34;12.75;;;9.85;;
77061;SDS011;65989;51.686;5.138;2023-06-10T03:22:12;14.00;;;9.90;;
77061;SDS011;65989;51.686;5.138;2023-06-10T03:24:37;13.07;;;9.43;;
77061;SDS011;65989;51.686;5.138;2023-06-10T03:27:06;12.93;;;9.45;;
77061;SDS011;65989;51.686;5.138;2023-06-10T03:29:31;13.93;;;9.70;;
77061;SDS011;65989;51.686;5.138;2023-06-10T03:31:57;15.30;;;10.25;;
77061;SDS011;65989;51.686;5.138;2023-06-10T03:34:22;15.90;;;11.03;;
77061;SDS011;65989;51.686;5.138;2023-06-10T03:36:48;12.85;;;10.00;;
77061;SDS011;65989;51.686;5.138;2023-06-10T03:39:13;14.33;;;10.60;;
77061;SDS011;65989;51.686;5.138;2023-06-10T03:41:39;17.60;;;10.77;;
77061;SDS011;65989;51.686;5.138;2023-06-10T03:44:04;16.93;;;10.63;;
77061;SDS011;65989;51.686;5.138;2023-06-10T03:46:29;16.97;;;11.57;;
77061;SDS011;65989;51.686;5.138;2023-06-10T03:48:54;13.23;;;10.60;;
77061;SDS011;65989;51.686;5.138;2023-06-10T03:51:20;13.32;;;10.70;;
77061;SDS011;65989;51.686;5.138;2023-06-10T03:53:46;14.00;;;10.63;;
77061;SDS011;65989;51.686;5.138;2023-06-10T03:56:11;14.20;;;10.47;;
77061;SDS011;65989;51.686;5.138;2023-06-10T03:58:36;14.17;;;10.93;;
77061;SDS011;65989;51.686;5.138;2023-06-10T04:01:01;14.87;;;11.00;;
77061;SDS011;65989;51.686;5.138;2023-06-10T04:03:27;15.57;;;10.50;;
77061;SDS011;65989;51.686;5.138;2023-06-10T04:05:52;15.07;;;10.40;;
77061;SDS011;65989;51.686;5.138;2023-06-10T04:08:17;15.97;;;10.40;;
77061;SDS011;65989;51.686;5.138;2023-06-10T04:10:43;13.67;;;9.53;;
77061;SDS011;65989;51.686;5.138;2023-06-10T04:13:08;13.67;;;10.03;;
77061;SDS011;65989;51.686;5.138;2023-06-10T04:15:34;13.50;;;9.82;;
77061;SDS011;65989;51.686;5.138;2023-06-10T04:17:59;13.47;;;10.00;;
77061;SDS011;65989;51.686;5.138;2023-06-10T04:20:26;14.85;;;10.00;;
77061;SDS011;65989;51.686;5.138;2023-06-10T04:22:51;15.97;;;9.83;;
77061;SDS011;65989;51.686;5.138;2023-06-10T04:25:16;12.50;;;9.63;;
77061;SDS011;65989;51.686;5.138;2023-06-10T04:27:42;15.90;;;9.93;;
77061;SDS011;65989;51.686;5.138;2023-06-10T04:30:08;18.45;;;9.80;;
77061;SDS011;65989;51.686;5.138;2023-06-10T04:32:34;13.38;;;9.13;;
77061;SDS011;65989;51.686;5.138;2023-06-10T04:34:59;16.17;;;9.43;;
77061;SDS011;65989;51.686;5.138;2023-06-10T04:37:25;13.27;;;9.60;;
77061;SDS011;65989;51.686;5.138;2023-06-10T04:39:50;17.77;;;10.00;;
77061;SDS011;65989;51.686;5.138;2023-06-10T04:42:15;15.40;;;9.23;;
77061;SDS011;65989;51.686;5.138;2023-06-10T04:44:41;17.13;;;9.57;;
77061;SDS011;65989;51.686;5.138;2023-06-10T04:47:06;16.10;;;9.50;;
77061;SDS011;65989;51.686;5.138;2023-06-10T04:49:32;12.55;;;9.18;;
77061;SDS011;65989;51.686;5.138;2023-06-10T04:51:58;14.07;;;9.40;;
77061;SDS011;65989;51.686;5.138;2023-06-10T04:54:24;16.55;;;9.60;;
77061;SDS011;65989;51.686;5.138;2023-06-10T04:56:50;14.17;;;9.83;;
77061;SDS011;65989;51.686;5.138;2023-06-10T04:59:15;16.60;;;8.93;;
77061;SDS011;65989;51.686;5.138;2023-06-10T05:01:40;13.10;;;9.00;;
77061;SDS011;65989;51.686;5.138;2023-06-10T05:04:05;15.60;;;9.63;;
77061;SDS011;65989;51.686;5.138;2023-06-10T05:06:31;16.63;;;9.80;;
77061;SDS011;65989;51.686;5.138;2023-06-10T05:08:56;14.60;;;9.67;;
77061;SDS011;65989;51.686;5.138;2023-06-10T05:11:21;12.27;;;9.00;;
77061;SDS011;65989;51.686;5.138;2023-06-10T05:13:47;14.48;;;9.10;;
77061;SDS011;65989;51.686;5.138;2023-06-10T05:16:12;14.33;;;9.13;;
77061;SDS011;65989;51.686;5.138;2023-06-10T05:18:37;12.67;;;8.57;;
77061;SDS011;65989;51.686;5.138;2023-06-10T05:21:07;14.90;;;8.50;;
77061;SDS011;65989;51.686;5.138;2023-06-10T05:23:33;13.37;;;8.63;;
77061;SDS011;65989;51.686;5.138;2023-06-10T05:25:58;12.97;;;8.53;;
77061;SDS011;65989;51.686;5.138;2023-06-10T05:28:24;16.00;;;9.02;;
77061;SDS011;65989;51.686;5.138;2023-06-10T05:30:49;17.27;;;8.40;;
77061;SDS011;65989;51.686;5.138;2023-06-10T05:33:15;14.37;;;8.80;;
77061;SDS011;65989;51.686;5.138;2023-06-10T05:35:40;13.60;;;8.27;;
77061;SDS011;65989;51.686;5.138;2023-06-10T05:38:06;13.03;;;8.23;;
77061;SDS011;65989;51.686;5.138;2023-06-10T05:40:31;13.27;;;8.23;;
77061;SDS011;65989;51.686;5.138;2023-06-10T05:42:57;12.77;;;7.80;;
77061;SDS011;65989;51.686;5.138;2023-06-10T05:45:22;12.67;;;7.97;;
77061;SDS011;65989;51.686;5.138;2023-06-10T05:47:47;13.47;;;7.70;;
77061;SDS011;65989;51.686;5.138;2023-06-10T05:50:12;12.10;;;7.77;;
77061;SDS011;65989;51.686;5.138;2023-06-10T05:52:37;12.40;;;7.80;;
77061;SDS011;65989;51.686;5.138;2023-06-10T05:55:05;15.23;;;8.00;;
77061;SDS011;65989;51.686;5.138;2023-06-10T05:57:31;11.20;;;7.50;;
77061;SDS011;65989;51.686;5.138;2023-06-10T05:59:56;11.57;;;7.67;;
77061;SDS011;65989;51.686;5.138;2023-06-10T06:02:22;14.87;;;7.77;;
77061;SDS011;65989;51.686;5.138;2023-06-10T06:04:47;13.15;;;7.60;;
77061;SDS011;65989;51.686;5.138;2023-06-10T06:07:13;12.63;;;7.50;;
77061;SDS011;65989;51.686;5.138;2023-06-10T06:09:38;10.13;;;7.10;;
77061;SDS011;65989;51.686;5.138;2023-06-10T06:12:03;11.17;;;7.30;;
77061;SDS011;65989;51.686;5.138;2023-06-10T06:14:30;13.13;;;6.80;;
77061;SDS011;65989;51.686;5.138;2023-06-10T06:16:56;10.38;;;7.25;;
77061;SDS011;65989;51.686;5.138;2023-06-10T06:19:21;15.37;;;7.10;;
77061;SDS011;65989;51.686;5.138;2023-06-10T06:21:46;12.33;;;7.33;;
77061;SDS011;65989;51.686;5.138;2023-06-10T06:24:11;17.47;;;7.33;;
77061;SDS011;65989;51.686;5.138;2023-06-10T06:26:37;12.80;;;6.83;;
77061;SDS011;65989;51.686;5.138;2023-06-10T06:29:02;10.13;;;6.53;;
77061;SDS011;65989;51.686;5.138;2023-06-10T06:31:27;11.20;;;6.67;;
77061;SDS011;65989;51.686;5.138;2023-06-10T06:33:52;14.07;;;7.17;;
77061;SDS011;65989;51.686;5.138;2023-06-10T06:36:18;12.97;;;6.97;;
77061;SDS011;65989;51.686;5.138;2023-06-10T06:38:43;11.07;;;6.77;;
77061;SDS011;65989;51.686;5.138;2023-06-10T06:41:08;13.53;;;6.83;;
77061;SDS011;65989;51.686;5.138;2023-06-10T06:43:33;13.77;;;6.97;;
77061;SDS011;65989;51.686;5.138;2023-06-10T06:45:59;11.57;;;7.40;;
77061;SDS011;65989;51.686;5.138;2023-06-10T06:48:24;15.27;;;7.10;;
77061;SDS011;65989;51.686;5.138;2023-06-10T06:50:49;10.97;;;6.43;;
77061;SDS011;65989;51.686;5.138;2023-06-10T06:53:15;15.83;;;6.80;;
77061;SDS011;65989;51.686;5.138;2023-06-10T06:55:40;12.77;;;6.47;;
77061;SDS011;65989;51.686;5.138;2023-06-10T06:58:05;10.07;;;7.07;;
77061;SDS011;65989;51.686;5.138;2023-06-10T07:00:31;12.32;;;6.72;;
77061;SDS011;65989;51.686;5.138;2023-06-10T07:02:56;11.27;;;6.53;;
77061;SDS011;65989;51.686;5.138;2023-06-10T07:05:22;12.63;;;6.47;;
77061;SDS011;65989;51.686;5.138;2023-06-10T07:07:47;11.88;;;6.35;;
77061;SDS011;65989;51.686;5.138;2023-06-10T07:10:13;12.53;;;6.50;;
77061;SDS011;65989;51.686;5.138;2023-06-10T07:12:39;13.68;;;6.50;;
77061;SDS011;65989;51.686;5.138;2023-06-10T07:15:05;10.17;;;6.17;;
77061;SDS011;65989;51.686;5.138;2023-06-10T07:17:30;10.67;;;6.50;;
77061;SDS011;65989;51.686;5.138;2023-06-10T07:19:55;11.83;;;6.77;;
77061;SDS011;65989;51.686;5.138;2023-06-10T07:22:22;19.50;;;7.00;;
77061;SDS011;65989;51.686;5.138;2023-06-10T07:24:48;13.97;;;6.80;;
77061;SDS011;65989;51.686;5.138;2023-06-10T07:27:13;17.37;;;6.80;;
77061;SDS011;65989;51.686;5.138;2023-06-10T07:29:38;11.90;;;6.35;;
77061;SDS011;65989;51.686;5.138;2023-06-10T07:32:04;12.40;;;6.30;;
77061;SDS011;65989;51.686;5.138;2023-06-10T07:34:29;14.23;;;6.87;;
77061;SDS011;65989;51.686;5.138;2023-06-10T07:36:54;12.20;;;6.47;;
77061;SDS011;65989;51.686;5.138;2023-06-10T07:39:20;12.93;;;6.40;;
77061;SDS011;65989;51.686;5.138;2023-06-10T07:41:45;10.82;;;6.05;;
77061;SDS011;65989;51.686;5.138;2023-06-10T07:44:10;12.07;;;6.20;;
77061;SDS011;65989;51.686;5.138;2023-06-10T07:46:35;11.83;;;6.27;;
77061;SDS011;65989;51.686;5.138;2023-06-10T07:49:01;13.07;;;6.27;;
77061;SDS011;65989;51.686;5.138;2023-06-10T07:51:27;9.93;;;6.22;;
77061;SDS011;65989;51.686;5.138;2023-06-10T07:53:52;10.53;;;6.20;;
77061;SDS011;65989;51.686;5.138;2023-06-10T07:56:17;11.40;;;6.50;;
77061;SDS011;65989;51.686;5.138;2023-06-10T07:58:43;8.57;;;5.80;;
77061;SDS011;65989;51.686;5.138;2023-06-10T08:01:08;9.97;;;6.17;;
77061;SDS011;65989;51.686;5.138;2023-06-10T08:03:33;12.67;;;6.03;;
77061;SDS011;65989;51.686;5.138;2023-06-10T08:05:59;12.82;;;6.40;;
77061;SDS011;65989;51.686;5.138;2023-06-10T08:08:24;10.40;;;6.10;;
77061;SDS011;65989;51.686;5.138;2023-06-10T08:10:49;12.60;;;6.37;;
77061;SDS011;65989;51.686;5.138;2023-06-10T08:13:15;13.50;;;6.23;;
77061;SDS011;65989;51.686;5.138;2023-06-10T08:15:40;10.03;;;6.13;;
77061;SDS011;65989;51.686;5.138;2023-06-10T08:18:05;12.63;;;5.97;;
77061;SDS011;65989;51.686;5.138;2023-06-10T08:20:30;14.50;;;5.80;;
77061;SDS011;65989;51.686;5.138;2023-06-10T08:22:57;9.73;;;6.03;;
77061;SDS011;65989;51.686;5.138;2023-06-10T08:25:22;9.87;;;5.63;;
77061;SDS011;65989;51.686;5.138;2023-06-10T08:27:48;10.47;;;6.03;;
77061;SDS011;65989;51.686;5.138;2023-06-10T08:30:13;9.75;;;6.00;;
77061;SDS011;65989;51.686;5.138;2023-06-10T08:32:39;10.63;;;5.70;;
77061;SDS011;65989;51.686;5.138;2023-06-10T08:35:04;12.55;;;5.85;;
77061;SDS011;65989;51.686;5.138;2023-06-10T08:37:30;9.20;;;6.13;;
77061;SDS011;65989;51.686;5.138;2023-06-10T08:39:55;10.47;;;5.90;;
77061;SDS011;65989;51.686;5.138;2023-06-10T08:42:35;8.87;;;5.83;;
77061;SDS011;65989;51.686;5.138;2023-06-10T08:45:02;9.68;;;5.57;;
77061;SDS011;65989;51.686;5.138;2023-06-10T08:47:28;12.00;;;6.00;;
77061;SDS011;65989;51.686;5.138;2023-06-10T08:49:56;11.75;;;5.63;;
77061;SDS011;65989;51.686;5.138;2023-06-10T08:52:26;10.23;;;5.63;;
77061;SDS011;65989;51.686;5.138;2023-06-10T08:54:54;11.15;;;5.35;;
77061;SDS011;65989;51.686;5.138;2023-06-10T08:57:21;16.23;;;5.78;;
77061;SDS011;65989;51.686;5.138;2023-06-10T08:59:48;11.60;;;5.68;;
77061;SDS011;65989;51.686;5.138;2023-06-10T09:02:13;11.13;;;5.93;;
77061;SDS011;65989;51.686;5.138;2023-06-10T09:04:40;9.52;;;5.72;;
77061;SDS011;65989;51.686;5.138;2023-06-10T09:07:07;12.30;;;5.97;;
77061;SDS011;65989;51.686;5.138;2023-06-10T09:09:32;11.07;;;5.60;;
77061;SDS011;65989;51.686;5.138;2023-06-10T09:11:59;10.13;;;5.68;;
77061;SDS011;65989;51.686;5.138;2023-06-10T09:14:25;11.63;;;5.43;;
77061;SDS011;65989;51.686;5.138;2023-06-10T09:16:50;14.57;;;6.03;;
77061;SDS011;65989;51.686;5.138;2023-06-10T09:19:16;10.07;;;6.00;;
77061;SDS011;65989;51.686;5.138;2023-06-10T09:21:41;11.67;;;5.30;;
77061;SDS011;65989;51.686;5.138;2023-06-10T09:24:07;10.63;;;6.00;;
77061;SDS011;65989;51.686;5.138;2023-06-10T09:26:32;9.73;;;5.60;;
77061;SDS011;65989;51.686;5.138;2023-06-10T09:29:02;8.93;;;5.80;;
77061;SDS011;65989;51.686;5.138;2023-06-10T09:31:31;10.55;;;5.80;;
77061;SDS011;65989;51.686;5.138;2023-06-10T09:34:06;14.77;;;5.40;;
77061;SDS011;65989;51.686;5.138;2023-06-10T09:36:32;13.57;;;5.85;;
77061;SDS011;65989;51.686;5.138;2023-06-10T09:38:58;11.10;;;5.27;;
77061;SDS011;65989;51.686;5.138;2023-06-10T09:41:31;9.80;;;5.70;;
77061;SDS011;65989;51.686;5.138;2023-06-10T09:43:56;8.97;;;5.30;;
77061;SDS011;65989;51.686;5.138;2023-06-10T09:46:22;16.20;;;5.73;;
77061;SDS011;65989;51.686;5.138;2023-06-10T09:48:47;9.85;;;5.35;;
77061;SDS011;65989;51.686;5.138;2023-06-10T09:51:13;9.80;;;5.60;;
77061;SDS011;65989;51.686;5.138;2023-06-10T09:53:39;9.32;;;5.95;;
77061;SDS011;65989;51.686;5.138;2023-06-10T09:56:05;10.17;;;5.80;;
77061;SDS011;65989;51.686;5.138;2023-06-10T09:58:37;10.02;;;6.10;;
77061;SDS011;65989;51.686;5.138;2023-06-10T10:01:06;8.40;;;5.40;;
77061;SDS011;65989;51.686;5.138;2023-06-10T10:03:31;11.00;;;5.40;;
77061;SDS011;65989;51.686;5.138;2023-06-10T10:06:00;11.40;;;5.90;;
77061;SDS011;65989;51.686;5.138;2023-06-10T10:08:25;11.00;;;5.90;;
77061;SDS011;65989;51.686;5.138;2023-06-10T10:10:51;9.95;;;5.93;;
77061;SDS011;65989;51.686;5.138;2023-06-10T10:13:16;9.83;;;6.07;;
77061;SDS011;65989;51.686;5.138;2023-06-10T10:15:42;11.82;;;5.90;;
77061;SDS011;65989;51.686;5.138;2023-06-10T10:18:10;11.63;;;5.70;;
77061;SDS011;65989;51.686;5.138;2023-06-10T10:20:37;14.38;;;6.47;;
77061;SDS011;65989;51.686;5.138;2023-06-10T10:23:06;14.27;;;6.68;;
77061;SDS011;65989;51.686;5.138;2023-06-10T10:25:38;10.15;;;5.97;;
77061;SDS011;65989;51.686;5.138;2023-06-10T10:28:10;9.82;;;5.72;;
77061;SDS011;65989;51.686;5.138;2023-06-10T10:30:42;13.23;;;6.90;;
77061;SDS011;65989;51.686;5.138;2023-06-10T10:33:12;14.05;;;5.88;;
77061;SDS011;65989;51.686;5.138;2023-06-10T10:35:38;13.85;;;6.20;;
77061;SDS011;65989;51.686;5.138;2023-06-10T10:38:03;10.00;;;5.87;;
77061;SDS011;65989;51.686;5.138;2023-06-10T10:40:29;14.77;;;6.72;;
77061;SDS011;65989;51.686;5.138;2023-06-10T10:42:55;13.23;;;7.20;;
77061;SDS011;65989;51.686;5.138;2023-06-10T10:45:21;12.95;;;6.88;;
77061;SDS011;65989;51.686;5.138;2023-06-10T10:47:46;12.03;;;6.37;;
77061;SDS011;65989;51.686;5.138;2023-06-10T10:50:17;11.00;;;6.20;;
77061;SDS011;65989;51.686;5.138;2023-06-10T10:53:01;14.65;;;6.10;;
77061;SDS011;65989;51.686;5.138;2023-06-10T10:55:27;15.02;;;6.45;;
77061;SDS011;65989;51.686;5.138;2023-06-10T10:57:57;12.10;;;6.80;;
77061;SDS011;65989;51.686;5.138;2023-06-10T11:00:35;11.55;;;5.97;;
77061;SDS011;65989;51.686;5.138;2023-06-10T11:05:36;12.18;;;6.10;;
77061;SDS011;65989;51.686;5.138;2023-06-10T11:08:03;12.30;;;6.30;;
77061;SDS011;65989;51.686;5.138;2023-06-10T11:10:29;13.43;;;6.70;;
77061;SDS011;65989;51.686;5.138;2023-06-10T11:12:54;13.23;;;6.77;;
77061;SDS011;65989;51.686;5.138;2023-06-10T11:15:24;11.18;;;6.20;;
77061;SDS011;65989;51.686;5.138;2023-06-10T11:23:07;13.98;;;6.28;;
77061;SDS011;65989;51.686;5.138;2023-06-10T11:25:39;14.13;;;6.13;;
77061;SDS011;65989;51.686;5.138;2023-06-10T11:28:17;11.80;;;6.63;;
77061;SDS011;65989;51.686;5.138;2023-06-10T11:30:42;10.20;;;6.15;;
77061;SDS011;65989;51.686;5.138;2023-06-10T11:33:07;10.73;;;6.47;;
77061;SDS011;65989;51.686;5.138;2023-06-10T11:35:33;14.37;;;6.60;;
77061;SDS011;65989;51.686;5.138;2023-06-10T11:37:58;12.63;;;6.00;;
77061;SDS011;65989;51.686;5.138;2023-06-10T11:40:24;10.57;;;5.97;;
77061;SDS011;65989;51.686;5.138;2023-06-10T11:42:49;10.40;;;6.10;;
77061;SDS011;65989;51.686;5.138;2023-06-10T11:45:15;9.70;;;6.30;;
77061;SDS011;65989;51.686;5.138;2023-06-10T11:47:54;15.02;;;6.63;;
77061;SDS011;65989;51.686;5.138;2023-06-10T11:50:27;9.95;;;6.05;;
77061;SDS011;65989;51.686;5.138;2023-06-10T11:52:52;11.37;;;6.20;;
77061;SDS011;65989;51.686;5.138;2023-06-10T11:55:20;11.57;;;6.20;;
77061;SDS011;65989;51.686;5.138;2023-06-10T11:57:46;11.20;;;5.97;;
77061;SDS011;65989;51.686;5.138;2023-06-10T12:00:11;13.38;;;6.40;;
77061;SDS011;65989;51.686;5.138;2023-06-10T12:02:37;11.83;;;6.23;;
77061;SDS011;65989;51.686;5.138;2023-06-10T12:05:12;10.77;;;5.77;;
77061;SDS011;65989;51.686;5.138;2023-06-10T12:07:37;8.43;;;5.47;;
77061;SDS011;65989;51.686;5.138;2023-06-10T12:10:02;11.30;;;5.93;;
77061;SDS011;65989;51.686;5.138;2023-06-10T12:12:28;9.50;;;6.00;;
77061;SDS011;65989;51.686;5.138;2023-06-10T12:14:57;11.55;;;6.20;;
77061;SDS011;65989;51.686;5.138;2023-06-10T12:17:43;12.50;;;6.00;;
77061;SDS011;65989;51.686;5.138;2023-06-10T12:20:08;9.30;;;5.73;;
77061;SDS011;65989;51.686;5.138;2023-06-10T12:22:38;9.18;;;6.07;;
77061;SDS011;65989;51.686;5.138;2023-06-10T12:25:04;9.73;;;5.97;;
77061;SDS011;65989;51.686;5.138;2023-06-10T12:27:29;14.55;;;5.95;;
77061;SDS011;65989;51.686;5.138;2023-06-10T12:29:55;9.00;;;5.80;;
77061;SDS011;65989;51.686;5.138;2023-06-10T12:32:21;8.65;;;6.03;;
77061;SDS011;65989;51.686;5.138;2023-06-10T12:35:01;14.38;;;6.10;;
77061;SDS011;65989;51.686;5.138;2023-06-10T12:37:26;13.67;;;6.30;;
77061;SDS011;65989;51.686;5.138;2023-06-10T12:39:52;11.20;;;5.57;;
77061;SDS011;65989;51.686;5.138;2023-06-10T12:42:21;10.00;;;5.80;;
77061;SDS011;65989;51.686;5.138;2023-06-10T12:44:47;11.35;;;6.20;;
77061;SDS011;65989;51.686;5.138;2023-06-10T12:47:17;10.35;;;5.90;;
77061;SDS011;65989;51.686;5.138;2023-06-10T12:49:43;10.23;;;5.90;;
77061;SDS011;65989;51.686;5.138;2023-06-10T12:52:08;11.80;;;5.73;;
77061;SDS011;65989;51.686;5.138;2023-06-10T12:54:33;10.33;;;5.80;;
77061;SDS011;65989;51.686;5.138;2023-06-10T12:56:59;10.77;;;5.90;;
77061;SDS011;65989;51.686;5.138;2023-06-10T12:59:24;11.97;;;5.93;;
77061;SDS011;65989;51.686;5.138;2023-06-10T13:01:50;7.57;;;5.33;;
77061;SDS011;65989;51.686;5.138;2023-06-10T13:04:16;9.98;;;5.70;;
77061;SDS011;65989;51.686;5.138;2023-06-10T13:06:43;11.60;;;6.00;;
77061;SDS011;65989;51.686;5.138;2023-06-10T13:09:08;7.60;;;4.97;;
77061;SDS011;65989;51.686;5.138;2023-06-10T13:11:34;8.00;;;5.83;;
77061;SDS011;65989;51.686;5.138;2023-06-10T13:14:00;10.02;;;5.90;;
77061;SDS011;65989;51.686;5.138;2023-06-10T13:16:25;10.23;;;6.00;;
77061;SDS011;65989;51.686;5.138;2023-06-10T13:18:51;9.10;;;5.50;;
77061;SDS011;65989;51.686;5.138;2023-06-10T13:21:17;8.73;;;5.97;;
77061;SDS011;65989;51.686;5.138;2023-06-10T13:23:43;14.10;;;6.03;;
77061;SDS011;65989;51.686;5.138;2023-06-10T13:26:09;9.85;;;5.68;;
77061;SDS011;65989;51.686;5.138;2023-06-10T13:28:34;12.93;;;5.70;;
77061;SDS011;65989;51.686;5.138;2023-06-10T13:31:00;9.63;;;5.87;;
77061;SDS011;65989;51.686;5.138;2023-06-10T13:33:25;9.33;;;5.57;;
77061;SDS011;65989;51.686;5.138;2023-06-10T13:35:50;8.73;;;5.57;;
77061;SDS011;65989;51.686;5.138;2023-06-10T13:38:16;11.27;;;5.60;;
77061;SDS011;65989;51.686;5.138;2023-06-10T13:40:41;8.73;;;5.63;;
77061;SDS011;65989;51.686;5.138;2023-06-10T13:43:06;7.90;;;5.47;;
77061;SDS011;65989;51.686;5.138;2023-06-10T13:45:31;9.40;;;5.27;;
77061;SDS011;65989;51.686;5.138;2023-06-10T13:47:57;10.37;;;5.73;;
77061;SDS011;65989;51.686;5.138;2023-06-10T13:50:22;9.13;;;5.33;;
77061;SDS011;65989;51.686;5.138;2023-06-10T13:52:47;8.87;;;5.70;;
77061;SDS011;65989;51.686;5.138;2023-06-10T13:55:12;11.43;;;5.70;;
77061;SDS011;65989;51.686;5.138;2023-06-10T13:57:38;10.37;;;6.10;;
77061;SDS011;65989;51.686;5.138;2023-06-10T14:00:03;8.30;;;5.27;;
77061;SDS011;65989;51.686;5.138;2023-06-10T14:02:29;9.40;;;5.30;;
77061;SDS011;65989;51.686;5.138;2023-06-10T14:04:54;8.68;;;5.45;;
77061;SDS011;65989;51.686;5.138;2023-06-10T14:07:20;12.57;;;5.70;;
77061;SDS011;65989;51.686;5.138;2023-06-10T14:09:45;7.53;;;5.43;;
77061;SDS011;65989;51.686;5.138;2023-06-10T14:12:10;9.10;;;5.70;;
77061;SDS011;65989;51.686;5.138;2023-06-10T14:14:36;9.55;;;5.82;;
77061;SDS011;65989;51.686;5.138;2023-06-10T14:17:02;9.17;;;5.37;;
77061;SDS011;65989;51.686;5.138;2023-06-10T14:19:28;8.55;;;5.50;;
77061;SDS011;65989;51.686;5.138;2023-06-10T14:21:53;11.50;;;5.43;;
77061;SDS011;65989;51.686;5.138;2023-06-10T14:24:20;11.35;;;5.55;;
77061;SDS011;65989;51.686;5.138;2023-06-10T14:26:45;11.80;;;5.57;;
77061;SDS011;65989;51.686;5.138;2023-06-10T14:29:10;7.93;;;5.53;;
77061;SDS011;65989;51.686;5.138;2023-06-10T14:31:39;9.75;;;5.70;;
77061;SDS011;65989;51.686;5.138;2023-06-10T14:34:04;9.35;;;5.75;;
77061;SDS011;65989;51.686;5.138;2023-06-10T14:36:32;11.73;;;5.87;;
77061;SDS011;65989;51.686;5.138;2023-06-10T14:38:58;7.78;;;5.65;;
77061;SDS011;65989;51.686;5.138;2023-06-10T14:41:23;8.97;;;6.00;;